createdAt,value
2022-10-05T00:00:00.358Z,100767.65
2022-10-05T00:05:22.205Z,100778.19
2022-10-05T00:10:25.032Z,100767.84
2022-10-05T00:15:29.350Z,100772.24
2022-10-05T00:20:31.989Z,100781.89
2022-10-05T00:25:34.741Z,100766.19
2022-10-05T00:30:37.961Z,100765.85
2022-10-05T00:35:40.624Z,100769.33
2022-10-05T00:41:05.598Z,100763.67
2022-10-05T00:46:27.141Z,100760.55
2022-10-05T00:51:38.892Z,100766.60
2022-10-05T00:57:09.079Z,100758.35
2022-10-05T01:02:39.749Z,100746.39
2022-10-05T01:08:03.304Z,100731.43
2022-10-05T01:13:23.980Z,100730.70
2022-10-05T01:18:56.837Z,100733.95
2022-10-05T01:24:36.428Z,100723.55
2022-10-05T01:29:59.470Z,100709.46
2022-10-05T01:35:14.122Z,100719.25
2022-10-05T01:40:33.961Z,100719.83
2022-10-05T01:45:39.617Z,100731.15
2022-10-05T01:51:09.453Z,100725.02
2022-10-05T01:56:24.037Z,100729.26
2022-10-05T02:01:43.336Z,100723.60
2022-10-05T02:06:50.235Z,100718.88
2022-10-05T02:12:01.104Z,100714.48
2022-10-05T02:17:26.840Z,100712.37
2022-10-05T02:22:37.249Z,100696.63
2022-10-05T02:27:54.109Z,100687.23
2022-10-05T02:33:02.793Z,100688.27
2022-10-05T02:38:19.835Z,100690.63
2022-10-05T02:43:44.435Z,100683.06
2022-10-05T02:49:13.069Z,100686.34
2022-10-05T02:54:41.678Z,100699.02
2022-10-05T03:00:11.591Z,100694.59
2022-10-05T03:05:34.080Z,100691.80
2022-10-05T03:10:59.763Z,100694.76
2022-10-05T03:16:14.536Z,100696.63
2022-10-05T03:21:23.210Z,100688.83
2022-10-05T03:26:32.810Z,100688.38
2022-10-05T03:31:49.225Z,100680.38
2022-10-05T03:36:51.888Z,100675.71
2022-10-05T03:42:05.599Z,100680.71
2022-10-05T03:47:47.875Z,100675.01
2022-10-05T03:52:54.564Z,100667.98
2022-10-05T03:57:59.824Z,100663.23
2022-10-05T04:03:19.037Z,100665.12
2022-10-05T04:08:47.613Z,100664.73
2022-10-05T04:13:56.243Z,100660.66
2022-10-05T04:19:20.390Z,100659.50
2022-10-05T04:24:42.303Z,100654.45
2022-10-05T04:30:05.417Z,100661.32
2022-10-05T04:35:40.670Z,100658.33
2022-10-05T04:41:14.071Z,100659.41
2022-10-05T04:46:37.935Z,100657.61
2022-10-05T04:52:02.667Z,100659.27
2022-10-05T04:57:18.066Z,100653.71
2022-10-05T05:02:24.555Z,100650.16
2022-10-05T05:08:02.099Z,100636.31
2022-10-05T05:13:25.713Z,100636.38
2022-10-05T05:18:42.590Z,100629.73
2022-10-05T05:24:04.054Z,100651.63
2022-10-05T05:29:28.733Z,100643.52
2022-10-05T05:34:55.403Z,100644.27
2022-10-05T05:40:07.319Z,100638.75
2022-10-05T05:45:19.030Z,100644.66
2022-10-05T05:50:43.341Z,100646.60
2022-10-05T05:55:50.246Z,100649.80
2022-10-05T06:01:05.427Z,100655.05
2022-10-05T06:06:15.740Z,100659.41
2022-10-05T06:11:27.658Z,100648.23
2022-10-05T06:16:43.041Z,100636.50
2022-10-05T06:21:57.015Z,100613.83
2022-10-05T06:27:16.473Z,100619.91
2022-10-05T06:32:31.437Z,100614.19
2022-10-05T06:37:52.992Z,100618.08
2022-10-05T06:43:17.108Z,100617.09
2022-10-05T06:48:46.513Z,100623.92
2022-10-05T06:53:52.111Z,100617.34
2022-10-05T06:59:22.857Z,100622.59
2022-10-05T07:04:44.115Z,100611.48
2022-10-05T07:10:32.786Z,100620.48
2022-10-05T07:15:52.869Z,100598.90
2022-10-05T07:21:16.811Z,100578.94
2022-10-05T07:26:34.388Z,100581.89
2022-10-05T07:31:56.867Z,100579.77
2022-10-05T07:37:35.703Z,100568.97
2022-10-05T07:42:52.307Z,100579.96
2022-10-05T07:48:05.967Z,100591.58
2022-10-05T07:53:45.225Z,100593.20
2022-10-05T07:58:56.887Z,100589.17
2022-10-05T08:04:41.809Z,100583.36
2022-10-05T08:09:49.122Z,100579.51
2022-10-05T08:15:12.059Z,100563.84
2022-10-05T08:20:46.204Z,100572.20
2022-10-05T08:25:51.982Z,100568.92
2022-10-05T08:31:02.134Z,100589.33
2022-10-05T08:36:16.064Z,100585.48
2022-10-05T08:41:43.718Z,100584.95
2022-10-05T08:47:16.310Z,100591.70
2022-10-05T08:52:31.634Z,100593.40
2022-10-05T08:58:12.318Z,100584.27
2022-10-05T09:03:28.979Z,100590.15
2022-10-05T09:09:16.616Z,100584.49
2022-10-05T09:15:07.157Z,100574.64
2022-10-05T09:20:36.585Z,100577.04
2022-10-05T09:25:59.560Z,100561.16
2022-10-05T09:31:10.167Z,100570.65
2022-10-05T09:36:18.975Z,100585.50
2022-10-05T09:41:57.012Z,100583.73
2022-10-05T09:47:08.339Z,100592.07
2022-10-05T09:52:42.222Z,100588.70
2022-10-05T09:58:03.773Z,100584.48
2022-10-05T10:03:09.689Z,100576.27
2022-10-05T10:08:44.807Z,100583.20
2022-10-05T10:14:12.564Z,100586.68
2022-10-05T10:19:52.248Z,100581.31
2022-10-05T10:25:27.519Z,100574.61
2022-10-05T10:30:42.649Z,100577.73
2022-10-05T10:36:19.349Z,100592.05
2022-10-05T10:41:39.355Z,100596.87
2022-10-05T10:47:10.596Z,100595.11
2022-10-05T10:52:45.626Z,100584.66
2022-10-05T10:57:50.974Z,100577.33
2022-10-05T11:03:33.724Z,100551.67
2022-10-05T11:09:11.000Z,100553.09
2022-10-05T11:14:49.523Z,100534.20
2022-10-05T11:20:05.105Z,100526.14
2022-10-05T11:25:27.724Z,100531.42
2022-10-05T11:30:59.771Z,100532.39
2022-10-05T11:36:35.316Z,100531.27
2022-10-05T11:41:59.600Z,100533.41
2022-10-05T11:47:24.007Z,100530.59
2022-10-05T11:52:37.881Z,100526.70
2022-10-05T11:57:54.906Z,100523.42
2022-10-05T12:03:15.770Z,100536.14
2022-10-05T12:08:44.611Z,100526.86
2022-10-05T12:14:00.777Z,100527.55
2022-10-05T12:19:14.922Z,100530.87
2022-10-05T12:24:35.951Z,100527.05
2022-10-05T12:30:01.653Z,100520.53
2022-10-05T12:35:43.645Z,100522.04
2022-10-05T12:40:56.755Z,100521.90
2022-10-05T12:46:19.684Z,100527.66
2022-10-05T12:51:51.505Z,100532.90
2022-10-05T12:57:29.852Z,100536.62
2022-10-05T13:02:44.183Z,100535.13
2022-10-05T13:08:18.003Z,100532.50
2022-10-05T13:13:26.615Z,100534.92
2022-10-05T13:18:56.116Z,100526.63
2022-10-05T13:24:04.528Z,100527.31
2022-10-05T13:29:25.983Z,100519.02
2022-10-05T13:34:53.502Z,100520.02
2022-10-05T13:40:14.991Z,100523.92
2022-10-05T13:45:25.060Z,100521.89
2022-10-05T13:50:35.750Z,100519.88
2022-10-05T13:55:38.435Z,100517.98
2022-10-05T14:00:50.066Z,100521.99
2022-10-05T14:05:57.902Z,100522.05
2022-10-05T14:11:21.320Z,100516.52
2022-10-05T14:16:26.238Z,100509.80
2022-10-05T14:21:31.672Z,100506.98
2022-10-05T14:26:36.132Z,100494.27
2022-10-05T14:31:49.563Z,100488.84
2022-10-05T14:37:19.927Z,100500.64
2022-10-05T14:42:25.092Z,100511.60
2022-10-05T14:47:31.441Z,100510.50
2022-10-05T14:52:34.872Z,100504.38
2022-10-05T14:58:07.773Z,100498.66
2022-10-05T15:03:38.292Z,100499.82
2022-10-05T15:08:53.050Z,100498.98
2022-10-05T15:13:56.624Z,100504.13
2022-10-05T15:19:16.127Z,100501.78
2022-10-05T15:24:26.462Z,100498.08
2022-10-05T15:29:48.522Z,100506.54
2022-10-05T15:35:08.291Z,100500.34
2022-10-05T15:40:29.504Z,100493.44
2022-10-05T15:45:57.187Z,100491.11
2022-10-05T15:51:15.533Z,100492.99
2022-10-05T15:56:38.708Z,100498.08
2022-10-05T16:01:52.971Z,100488.28
2022-10-05T16:07:19.676Z,100487.08
2022-10-05T16:12:50.075Z,100484.54
2022-10-05T16:18:10.676Z,100481.69
2022-10-05T16:23:35.293Z,100480.73
2022-10-05T16:28:54.401Z,100485.46
2022-10-05T16:34:31.611Z,100486.38
2022-10-05T16:39:50.235Z,100493.52
2022-10-05T16:45:13.677Z,100495.11
2022-10-05T16:50:44.387Z,100496.86
2022-10-05T16:55:51.934Z,100488.63
2022-10-05T17:01:29.777Z,100492.84
2022-10-05T17:07:03.313Z,100490.59
2022-10-05T17:12:05.976Z,100491.90
2022-10-05T17:17:21.749Z,100493.90
2022-10-05T17:22:30.325Z,100492.83
2022-10-05T17:28:15.216Z,100490.59
2022-10-05T17:33:22.684Z,100492.02
2022-10-05T17:38:31.150Z,100491.48
2022-10-05T17:43:34.581Z,100479.83
2022-10-05T17:48:37.190Z,100479.19
2022-10-05T17:54:01.191Z,100477.73
2022-10-05T17:59:06.718Z,100469.54
2022-10-05T18:04:12.314Z,100465.08
2022-10-05T18:09:20.434Z,100461.18
2022-10-05T18:14:24.933Z,100458.91
2022-10-05T18:19:32.347Z,100457.91
2022-10-05T18:25:09.065Z,100457.58
2022-10-05T18:30:22.515Z,100450.11
2022-10-05T18:35:32.713Z,100445.81
2022-10-05T18:40:56.958Z,100446.77
2022-10-05T18:46:11.507Z,100448.59
2022-10-05T18:51:20.148Z,100444.39
2022-10-05T18:56:43.880Z,100441.85
2022-10-05T19:02:05.781Z,100440.60
2022-10-05T19:07:45.562Z,100432.37
2022-10-05T19:12:56.699Z,100431.39
2022-10-05T19:18:25.664Z,100429.20
2022-10-05T19:23:55.358Z,100433.04
2022-10-05T19:29:07.103Z,100427.34
2022-10-05T19:34:28.439Z,100425.93
2022-10-05T19:39:46.634Z,100418.79
2022-10-05T19:44:52.542Z,100421.04
2022-10-05T19:49:57.907Z,100428.83
2022-10-05T19:55:25.175Z,100433.55
2022-10-05T20:00:31.404Z,100430.31
2022-10-05T20:05:34.362Z,100437.89
2022-10-05T20:10:37.261Z,100440.73
2022-10-05T20:15:58.451Z,100445.08
2022-10-05T20:21:01.244Z,100443.45
2022-10-05T20:26:22.566Z,100449.20
2022-10-05T20:31:25.300Z,100449.86
2022-10-05T20:36:28.133Z,100448.48
2022-10-05T20:41:30.840Z,100450.41
2022-10-05T20:46:34.512Z,100448.89
2022-10-05T20:51:40.282Z,100445.22
2022-10-05T20:56:43.127Z,100442.72
2022-10-05T21:01:49.417Z,100442.44
2022-10-05T21:06:53.043Z,100437.98
2022-10-05T21:11:56.295Z,100440.81
2022-10-05T21:16:59.041Z,100440.14
2022-10-05T21:22:02.578Z,100440.11
2022-10-05T21:27:06.131Z,100432.52
2022-10-05T21:32:11.785Z,100435.88
2022-10-05T21:37:15.489Z,100432.75
2022-10-05T21:42:18.146Z,100427.84
2022-10-05T21:47:20.863Z,100425.80
2022-10-05T21:52:23.543Z,100426.17
2022-10-05T21:57:26.354Z,100421.01
2022-10-05T22:02:29.077Z,100426.18
2022-10-05T22:07:32.173Z,100424.48
2022-10-05T22:12:35.075Z,100423.81
2022-10-05T22:17:37.887Z,100427.09
2022-10-05T22:22:40.602Z,100426.09
2022-10-05T22:27:43.579Z,100430.51
2022-10-05T22:32:46.257Z,100425.34
2022-10-05T22:37:48.938Z,100426.70
2022-10-05T22:42:53.238Z,100427.08
2022-10-05T22:47:56.226Z,100428.64
2022-10-05T22:52:58.919Z,100434.60
2022-10-05T22:58:01.818Z,100434.98
2022-10-05T23:03:04.505Z,100433.15
2022-10-05T23:08:07.199Z,100433.39
2022-10-05T23:13:09.913Z,100431.63
2022-10-05T23:18:12.597Z,100427.73
2022-10-05T23:23:15.311Z,100426.56
2022-10-05T23:28:18.053Z,100426.21
2022-10-05T23:33:21.015Z,100430.58
2022-10-05T23:38:23.713Z,100432.31
2022-10-05T23:43:27.427Z,100426.23
2022-10-05T23:48:31.515Z,100426.42
2022-10-05T23:53:35.222Z,100423.78
2022-10-05T23:58:38.091Z,100424.75
